Anson, Texas
Current Conditions -  °F | °C
As of 7:58 PM on Friday 28 Nov 2014 (Local Time) from KDYS Reporting Station
Clear Clear  
Wind Chill: 62°   Ceiling: Unl
Heat Index: 62°   Visibility: 10mi
Dew Point: 40°   Wind: 12mph
Humidity: 45%   Direction: 210°SSW
Pressure: 29.99"   Gusts: NA
Location:  32.76°N, 99.9°W
Report Text: KDYS 290158Z AUTO 21010KT 10SM CLR 16/04 A2999 RMK AO2 SLP141 T01640043 $
Loading
Personal Weather Stations






























Interactive Weather Map New forecast layout! Learn more

10-Day Weather Forecast

Advertisements
Track Severe Weather on mobile